Terminal Aerodrome Forecast
Issued by NWS

Home | Current Version | Previous Version | Text Only | Print | Product List | Glossary On
Versions: 1 2 3 4 5 6 7 8 9 10 11 12 13 14 15 16 17 18 19
000
FTUS43 KDVN 270500 RRA
TAFBRL
TAF
KBRL 270543Z 2706/2806 19007KT P6SM -RA BKN025 OVC050
     FM270900 20010KT 6SM -RA BR OVC015
     FM271200 24010KT 5SM BR OVC008
     FM271600 27014G22KT P6SM OVC015
     FM272100 28010KT P6SM BKN025=

USA.gov is the U.S. government's official web portal to all federal, state and local government web resources and services.